sensor_id;sensor_type;location;lat;lon;timestamp;temperature;humidity
7494;DHT22;3788;49.902;8.590;2022-11-12T00:01:08;7.40;99.90
7494;DHT22;3788;49.902;8.590;2022-11-12T00:03:34;7.40;99.90
7494;DHT22;3788;49.902;8.590;2022-11-12T00:06:01;7.40;99.90
7494;DHT22;3788;49.902;8.590;2022-11-12T00:08:28;7.40;99.90
7494;DHT22;3788;49.902;8.590;2022-11-12T00:10:55;7.40;99.90
7494;DHT22;3788;49.902;8.590;2022-11-12T00:13:22;7.40;99.90
7494;DHT22;3788;49.902;8.590;2022-11-12T00:15:50;7.30;99.90
7494;DHT22;3788;49.902;8.590;2022-11-12T00:18:17;7.30;99.90
7494;DHT22;3788;49.902;8.590;2022-11-12T00:20:44;7.30;99.90
7494;DHT22;3788;49.902;8.590;2022-11-12T00:23:11;7.30;99.90
7494;DHT22;3788;49.902;8.590;2022-11-12T00:25:38;7.30;99.90
7494;DHT22;3788;49.902;8.590;2022-11-12T00:28:07;7.30;99.90
7494;DHT22;3788;49.902;8.590;2022-11-12T00:30:36;7.30;99.90
7494;DHT22;3788;49.902;8.590;2022-11-12T00:33:05;7.30;99.90
7494;DHT22;3788;49.902;8.590;2022-11-12T00:35:32;7.30;99.90
7494;DHT22;3788;49.902;8.590;2022-11-12T00:37:59;7.30;99.90
7494;DHT22;3788;49.902;8.590;2022-11-12T00:40:27;7.30;99.90
7494;DHT22;3788;49.902;8.590;2022-11-12T00:42:55;7.30;99.90
7494;DHT22;3788;49.902;8.590;2022-11-12T00:45:22;7.40;99.90
7494;DHT22;3788;49.902;8.590;2022-11-12T00:47:52;7.30;99.90
7494;DHT22;3788;49.902;8.590;2022-11-12T00:50:22;7.40;99.90
7494;DHT22;3788;49.902;8.590;2022-11-12T00:52:50;7.40;99.90
7494;DHT22;3788;49.902;8.590;2022-11-12T00:55:17;7.40;99.90
7494;DHT22;3788;49.902;8.590;2022-11-12T00:57:44;7.40;99.90
7494;DHT22;3788;49.902;8.590;2022-11-12T01:00:14;7.40;99.90
7494;DHT22;3788;49.902;8.590;2022-11-12T01:02:41;7.40;99.90
7494;DHT22;3788;49.902;8.590;2022-11-12T01:05:08;7.40;99.90
7494;DHT22;3788;49.902;8.590;2022-11-12T01:07:37;7.40;99.90
7494;DHT22;3788;49.902;8.590;2022-11-12T01:10:04;7.40;99.90
7494;DHT22;3788;49.902;8.590;2022-11-12T01:12:32;7.40;99.90
7494;DHT22;3788;49.902;8.590;2022-11-12T01:14:59;7.40;99.90
7494;DHT22;3788;49.902;8.590;2022-11-12T01:17:26;7.40;99.90
7494;DHT22;3788;49.902;8.590;2022-11-12T01:19:53;7.40;99.90
7494;DHT22;3788;49.902;8.590;2022-11-12T01:22:19;7.40;99.90
7494;DHT22;3788;49.902;8.590;2022-11-12T01:24:48;7.40;99.90
7494;DHT22;3788;49.902;8.590;2022-11-12T01:27:15;7.40;99.90
7494;DHT22;3788;49.902;8.590;2022-11-12T01:29:42;7.40;99.90
7494;DHT22;3788;49.902;8.590;2022-11-12T01:32:08;7.40;99.90
7494;DHT22;3788;49.902;8.590;2022-11-12T01:34:35;7.40;99.90
7494;DHT22;3788;49.902;8.590;2022-11-12T01:37:02;7.40;99.90
7494;DHT22;3788;49.902;8.590;2022-11-12T01:39:28;7.50;99.90
7494;DHT22;3788;49.902;8.590;2022-11-12T01:41:56;7.50;99.90
7494;DHT22;3788;49.902;8.590;2022-11-12T01:44:25;7.50;99.90
7494;DHT22;3788;49.902;8.590;2022-11-12T01:46:59;7.60;99.90
7494;DHT22;3788;49.902;8.590;2022-11-12T01:49:30;7.60;99.90
7494;DHT22;3788;49.902;8.590;2022-11-12T01:52:05;7.60;99.90
7494;DHT22;3788;49.902;8.590;2022-11-12T01:54:34;7.70;99.90
7494;DHT22;3788;49.902;8.590;2022-11-12T01:57:02;7.70;99.90
7494;DHT22;3788;49.902;8.590;2022-11-12T01:59:38;7.70;99.90
7494;DHT22;3788;49.902;8.590;2022-11-12T02:02:06;7.70;99.90
7494;DHT22;3788;49.902;8.590;2022-11-12T02:04:34;7.60;99.90
7494;DHT22;3788;49.902;8.590;2022-11-12T02:07:02;7.60;99.90
7494;DHT22;3788;49.902;8.590;2022-11-12T02:09:29;7.60;99.90
7494;DHT22;3788;49.902;8.590;2022-11-12T02:11:57;7.60;99.90
7494;DHT22;3788;49.902;8.590;2022-11-12T02:14:26;7.60;99.90
7494;DHT22;3788;49.902;8.590;2022-11-12T02:16:53;7.60;99.90
7494;DHT22;3788;49.902;8.590;2022-11-12T02:19:19;7.60;99.90
7494;DHT22;3788;49.902;8.590;2022-11-12T02:21:47;7.60;99.90
7494;DHT22;3788;49.902;8.590;2022-11-12T02:24:30;7.60;99.90
7494;DHT22;3788;49.902;8.590;2022-11-12T02:26:57;7.60;99.90
7494;DHT22;3788;49.902;8.590;2022-11-12T02:29:24;7.50;99.90
7494;DHT22;3788;49.902;8.590;2022-11-12T02:31:51;7.50;99.90
7494;DHT22;3788;49.902;8.590;2022-11-12T02:34:18;7.40;99.90
7494;DHT22;3788;49.902;8.590;2022-11-12T02:36:44;7.40;99.90
7494;DHT22;3788;49.902;8.590;2022-11-12T02:39:13;7.40;99.90
7494;DHT22;3788;49.902;8.590;2022-11-12T02:41:40;7.40;99.90
7494;DHT22;3788;49.902;8.590;2022-11-12T02:44:06;7.30;99.90
7494;DHT22;3788;49.902;8.590;2022-11-12T02:46:33;7.30;99.90
7494;DHT22;3788;49.902;8.590;2022-11-12T02:49:00;7.30;99.90
7494;DHT22;3788;49.902;8.590;2022-11-12T02:51:27;7.20;99.90
7494;DHT22;3788;49.902;8.590;2022-11-12T02:53:53;7.20;99.90
7494;DHT22;3788;49.902;8.590;2022-11-12T02:56:21;7.20;99.90
7494;DHT22;3788;49.902;8.590;2022-11-12T02:58:48;7.20;99.90
7494;DHT22;3788;49.902;8.590;2022-11-12T03:01:15;7.20;99.90
7494;DHT22;3788;49.902;8.590;2022-11-12T03:03:41;7.20;99.90
7494;DHT22;3788;49.902;8.590;2022-11-12T03:06:08;7.20;99.90
7494;DHT22;3788;49.902;8.590;2022-11-12T03:08:35;7.20;99.90
7494;DHT22;3788;49.902;8.590;2022-11-12T03:11:05;7.20;99.90
7494;DHT22;3788;49.902;8.590;2022-11-12T03:13:34;7.10;99.90
7494;DHT22;3788;49.902;8.590;2022-11-12T03:16:01;7.10;99.90
7494;DHT22;3788;49.902;8.590;2022-11-12T03:18:27;7.10;99.90
7494;DHT22;3788;49.902;8.590;2022-11-12T03:20:54;7.10;99.90
7494;DHT22;3788;49.902;8.590;2022-11-12T03:23:21;7.10;99.90
7494;DHT22;3788;49.902;8.590;2022-11-12T03:25:47;7.10;99.90
7494;DHT22;3788;49.902;8.590;2022-11-12T03:28:15;7.00;99.90
7494;DHT22;3788;49.902;8.590;2022-11-12T03:30:44;6.90;99.90
7494;DHT22;3788;49.902;8.590;2022-11-12T03:33:12;6.90;99.90
7494;DHT22;3788;49.902;8.590;2022-11-12T03:35:39;6.90;99.90
7494;DHT22;3788;49.902;8.590;2022-11-12T03:38:06;6.90;99.90
7494;DHT22;3788;49.902;8.590;2022-11-12T03:40:33;6.80;99.90
7494;DHT22;3788;49.902;8.590;2022-11-12T03:43:00;6.80;99.90
7494;DHT22;3788;49.902;8.590;2022-11-12T03:45:27;6.80;99.90
7494;DHT22;3788;49.902;8.590;2022-11-12T03:47:56;6.80;99.90
7494;DHT22;3788;49.902;8.590;2022-11-12T03:50:25;6.80;99.90
7494;DHT22;3788;49.902;8.590;2022-11-12T03:52:53;6.70;99.90
7494;DHT22;3788;49.902;8.590;2022-11-12T03:55:21;6.70;99.90
7494;DHT22;3788;49.902;8.590;2022-11-12T03:57:49;6.70;99.90
7494;DHT22;3788;49.902;8.590;2022-11-12T04:00:17;6.70;99.90
7494;DHT22;3788;49.902;8.590;2022-11-12T04:02:44;6.70;99.90
7494;DHT22;3788;49.902;8.590;2022-11-12T04:05:12;6.70;99.90
7494;DHT22;3788;49.902;8.590;2022-11-12T04:07:58;6.70;99.90
7494;DHT22;3788;49.902;8.590;2022-11-12T04:10:42;6.70;99.90
7494;DHT22;3788;49.902;8.590;2022-11-12T04:13:09;6.70;99.90
7494;DHT22;3788;49.902;8.590;2022-11-12T04:15:56;6.70;99.90
7494;DHT22;3788;49.902;8.590;2022-11-12T04:18:40;6.70;99.90
7494;DHT22;3788;49.902;8.590;2022-11-12T04:21:29;6.70;99.90
7494;DHT22;3788;49.902;8.590;2022-11-12T04:24:14;6.80;99.90
7494;DHT22;3788;49.902;8.590;2022-11-12T04:26:54;6.80;99.90
7494;DHT22;3788;49.902;8.590;2022-11-12T04:29:21;6.90;99.90
7494;DHT22;3788;49.902;8.590;2022-11-12T04:32:05;6.90;99.90
7494;DHT22;3788;49.902;8.590;2022-11-12T04:34:32;6.90;99.90
7494;DHT22;3788;49.902;8.590;2022-11-12T04:37:00;6.90;99.90
7494;DHT22;3788;49.902;8.590;2022-11-12T04:39:27;6.90;99.90
7494;DHT22;3788;49.902;8.590;2022-11-12T04:41:54;6.90;99.90
7494;DHT22;3788;49.902;8.590;2022-11-12T04:44:38;7.00;99.90
7494;DHT22;3788;49.902;8.590;2022-11-12T04:47:22;6.90;99.90
7494;DHT22;3788;49.902;8.590;2022-11-12T04:49:49;6.90;99.90
7494;DHT22;3788;49.902;8.590;2022-11-12T04:52:17;6.90;99.90
7494;DHT22;3788;49.902;8.590;2022-11-12T04:54:43;6.80;99.90
7494;DHT22;3788;49.902;8.590;2022-11-12T04:57:10;6.70;99.90
7494;DHT22;3788;49.902;8.590;2022-11-12T04:59:37;6.60;99.90
7494;DHT22;3788;49.902;8.590;2022-11-12T05:02:04;6.60;99.90
7494;DHT22;3788;49.902;8.590;2022-11-12T05:04:31;6.60;99.90
7494;DHT22;3788;49.902;8.590;2022-11-12T05:06:58;6.50;99.90
7494;DHT22;3788;49.902;8.590;2022-11-12T05:09:27;6.50;99.90
7494;DHT22;3788;49.902;8.590;2022-11-12T05:11:54;6.40;99.90
7494;DHT22;3788;49.902;8.590;2022-11-12T05:14:21;6.40;99.90
7494;DHT22;3788;49.902;8.590;2022-11-12T05:16:49;6.40;99.90
7494;DHT22;3788;49.902;8.590;2022-11-12T05:19:16;6.40;99.90
7494;DHT22;3788;49.902;8.590;2022-11-12T05:21:43;6.40;99.90
7494;DHT22;3788;49.902;8.590;2022-11-12T05:24:29;6.50;99.90
7494;DHT22;3788;49.902;8.590;2022-11-12T05:26:55;6.50;99.90
7494;DHT22;3788;49.902;8.590;2022-11-12T05:29:22;6.50;99.90
7494;DHT22;3788;49.902;8.590;2022-11-12T05:31:49;6.50;99.90
7494;DHT22;3788;49.902;8.590;2022-11-12T05:34:16;6.60;99.90
7494;DHT22;3788;49.902;8.590;2022-11-12T05:36:43;6.50;99.90
7494;DHT22;3788;49.902;8.590;2022-11-12T05:39:09;6.60;99.90
7494;DHT22;3788;49.902;8.590;2022-11-12T05:41:38;6.60;99.90
7494;DHT22;3788;49.902;8.590;2022-11-12T05:44:05;6.60;99.90
7494;DHT22;3788;49.902;8.590;2022-11-12T05:46:31;6.60;99.90
7494;DHT22;3788;49.902;8.590;2022-11-12T05:48:58;6.60;99.90
7494;DHT22;3788;49.902;8.590;2022-11-12T05:51:25;6.60;99.90
7494;DHT22;3788;49.902;8.590;2022-11-12T05:53:52;6.60;99.90
7494;DHT22;3788;49.902;8.590;2022-11-12T05:56:19;6.60;99.90
7494;DHT22;3788;49.902;8.590;2022-11-12T05:58:47;6.60;99.90
7494;DHT22;3788;49.902;8.590;2022-11-12T06:01:13;6.60;99.90
7494;DHT22;3788;49.902;8.590;2022-11-12T06:03:40;6.60;99.90
7494;DHT22;3788;49.902;8.590;2022-11-12T06:06:07;6.60;99.90
7494;DHT22;3788;49.902;8.590;2022-11-12T06:08:34;6.70;99.90
7494;DHT22;3788;49.902;8.590;2022-11-12T06:11:00;6.60;99.90
7494;DHT22;3788;49.902;8.590;2022-11-12T06:13:27;6.70;99.90
7494;DHT22;3788;49.902;8.590;2022-11-12T06:15:56;6.70;99.90
7494;DHT22;3788;49.902;8.590;2022-11-12T06:18:23;6.70;99.90
7494;DHT22;3788;49.902;8.590;2022-11-12T06:20:50;6.70;99.90
7494;DHT22;3788;49.902;8.590;2022-11-12T06:23:30;6.70;99.90
7494;DHT22;3788;49.902;8.590;2022-11-12T06:25:58;6.80;99.90
7494;DHT22;3788;49.902;8.590;2022-11-12T06:28:25;6.80;99.90
7494;DHT22;3788;49.902;8.590;2022-11-12T06:30:51;6.80;99.90
7494;DHT22;3788;49.902;8.590;2022-11-12T06:33:20;6.80;99.90
7494;DHT22;3788;49.902;8.590;2022-11-12T06:35:46;6.80;99.90
7494;DHT22;3788;49.902;8.590;2022-11-12T06:38:13;6.80;99.90
7494;DHT22;3788;49.902;8.590;2022-11-12T06:40:40;6.80;99.90
7494;DHT22;3788;49.902;8.590;2022-11-12T06:43:07;6.80;99.90
7494;DHT22;3788;49.902;8.590;2022-11-12T06:45:36;6.80;99.90
7494;DHT22;3788;49.902;8.590;2022-11-12T06:48:03;6.80;99.90
7494;DHT22;3788;49.902;8.590;2022-11-12T06:50:31;6.80;99.90
7494;DHT22;3788;49.902;8.590;2022-11-12T06:52:58;6.80;99.90
7494;DHT22;3788;49.902;8.590;2022-11-12T06:55:25;6.80;99.90
7494;DHT22;3788;49.902;8.590;2022-11-12T06:57:52;6.90;99.90
7494;DHT22;3788;49.902;8.590;2022-11-12T07:00:19;6.90;99.90
7494;DHT22;3788;49.902;8.590;2022-11-12T07:02:45;6.90;99.90
7494;DHT22;3788;49.902;8.590;2022-11-12T07:05:12;6.90;99.90
7494;DHT22;3788;49.902;8.590;2022-11-12T07:07:40;6.90;99.90
7494;DHT22;3788;49.902;8.590;2022-11-12T07:10:08;6.90;99.90
7494;DHT22;3788;49.902;8.590;2022-11-12T07:12:35;6.90;99.90
7494;DHT22;3788;49.902;8.590;2022-11-12T07:15:02;7.00;99.90
7494;DHT22;3788;49.902;8.590;2022-11-12T07:17:29;7.00;99.90
7494;DHT22;3788;49.902;8.590;2022-11-12T07:19:55;7.00;99.90
7494;DHT22;3788;49.902;8.590;2022-11-12T07:22:22;7.00;99.90
7494;DHT22;3788;49.902;8.590;2022-11-12T07:24:50;7.00;99.90
7494;DHT22;3788;49.902;8.590;2022-11-12T07:27:17;7.00;99.90
7494;DHT22;3788;49.902;8.590;2022-11-12T07:29:44;7.00;99.90
7494;DHT22;3788;49.902;8.590;2022-11-12T07:32:11;7.00;99.90
7494;DHT22;3788;49.902;8.590;2022-11-12T07:34:37;7.00;99.90
7494;DHT22;3788;49.902;8.590;2022-11-12T07:37:04;7.00;99.90
7494;DHT22;3788;49.902;8.590;2022-11-12T07:39:30;7.00;99.90
7494;DHT22;3788;49.902;8.590;2022-11-12T07:41:58;7.00;99.90
7494;DHT22;3788;49.902;8.590;2022-11-12T07:44:25;7.00;99.90
7494;DHT22;3788;49.902;8.590;2022-11-12T07:46:52;7.00;99.90
7494;DHT22;3788;49.902;8.590;2022-11-12T07:49:19;7.10;99.90
7494;DHT22;3788;49.902;8.590;2022-11-12T07:51:45;7.10;99.90
7494;DHT22;3788;49.902;8.590;2022-11-12T07:54:12;7.10;99.90
7494;DHT22;3788;49.902;8.590;2022-11-12T07:56:39;7.20;99.90
7494;DHT22;3788;49.902;8.590;2022-11-12T07:59:07;7.20;99.90
7494;DHT22;3788;49.902;8.590;2022-11-12T08:01:34;7.30;99.90
7494;DHT22;3788;49.902;8.590;2022-11-12T08:04:03;7.30;99.90
7494;DHT22;3788;49.902;8.590;2022-11-12T08:06:31;7.40;99.90
7494;DHT22;3788;49.902;8.590;2022-11-12T08:08:59;7.40;99.90
7494;DHT22;3788;49.902;8.590;2022-11-12T08:11:26;7.50;99.90
7494;DHT22;3788;49.902;8.590;2022-11-12T08:13:53;7.50;99.90
7494;DHT22;3788;49.902;8.590;2022-11-12T08:16:22;7.60;99.90
7494;DHT22;3788;49.902;8.590;2022-11-12T08:18:49;7.60;99.90
7494;DHT22;3788;49.902;8.590;2022-11-12T08:21:17;7.70;99.90
7494;DHT22;3788;49.902;8.590;2022-11-12T08:23:44;7.70;99.90
7494;DHT22;3788;49.902;8.590;2022-11-12T08:26:13;7.60;99.90
7494;DHT22;3788;49.902;8.590;2022-11-12T08:28:40;7.60;99.90
7494;DHT22;3788;49.902;8.590;2022-11-12T08:31:09;7.60;99.90
7494;DHT22;3788;49.902;8.590;2022-11-12T08:33:38;7.60;99.90
7494;DHT22;3788;49.902;8.590;2022-11-12T08:36:07;7.60;99.90
7494;DHT22;3788;49.902;8.590;2022-11-12T08:38:34;7.60;99.90
7494;DHT22;3788;49.902;8.590;2022-11-12T08:41:02;7.70;99.90
7494;DHT22;3788;49.902;8.590;2022-11-12T08:43:30;7.70;99.90
7494;DHT22;3788;49.902;8.590;2022-11-12T08:45:57;7.70;99.90
7494;DHT22;3788;49.902;8.590;2022-11-12T08:48:25;7.70;99.90
7494;DHT22;3788;49.902;8.590;2022-11-12T08:50:55;7.60;99.90
7494;DHT22;3788;49.902;8.590;2022-11-12T08:53:24;7.60;99.90
7494;DHT22;3788;49.902;8.590;2022-11-12T08:55:53;7.60;99.90
7494;DHT22;3788;49.902;8.590;2022-11-12T08:58:21;7.60;99.90
7494;DHT22;3788;49.902;8.590;2022-11-12T09:00:51;7.60;99.90
7494;DHT22;3788;49.902;8.590;2022-11-12T09:03:20;7.60;99.90
7494;DHT22;3788;49.902;8.590;2022-11-12T09:05:49;7.60;99.90
7494;DHT22;3788;49.902;8.590;2022-11-12T09:08:19;7.50;99.90
7494;DHT22;3788;49.902;8.590;2022-11-12T09:10:48;7.60;99.90
7494;DHT22;3788;49.902;8.590;2022-11-12T09:13:16;7.60;99.90
7494;DHT22;3788;49.902;8.590;2022-11-12T09:15:43;7.60;99.90
7494;DHT22;3788;49.902;8.590;2022-11-12T09:18:13;7.70;99.90
7494;DHT22;3788;49.902;8.590;2022-11-12T09:20:40;7.80;99.90
7494;DHT22;3788;49.902;8.590;2022-11-12T09:23:09;7.90;99.90
7494;DHT22;3788;49.902;8.590;2022-11-12T09:25:40;7.90;99.90
7494;DHT22;3788;49.902;8.590;2022-11-12T09:28:11;8.00;99.90
7494;DHT22;3788;49.902;8.590;2022-11-12T09:30:42;8.00;99.90
7494;DHT22;3788;49.902;8.590;2022-11-12T09:33:10;8.00;99.90
7494;DHT22;3788;49.902;8.590;2022-11-12T09:35:38;8.00;99.90
7494;DHT22;3788;49.902;8.590;2022-11-12T09:38:05;8.10;99.90
7494;DHT22;3788;49.902;8.590;2022-11-12T09:40:53;8.10;99.90
7494;DHT22;3788;49.902;8.590;2022-11-12T09:43:24;8.20;99.90
7494;DHT22;3788;49.902;8.590;2022-11-12T09:45:55;8.30;99.90
7494;DHT22;3788;49.902;8.590;2022-11-12T09:48:28;8.40;99.90
7494;DHT22;3788;49.902;8.590;2022-11-12T09:51:01;8.40;99.90
7494;DHT22;3788;49.902;8.590;2022-11-12T09:54:08;8.40;99.90
7494;DHT22;3788;49.902;8.590;2022-11-12T09:56:52;8.40;99.90
7494;DHT22;3788;49.902;8.590;2022-11-12T09:59:21;8.30;99.90
7494;DHT22;3788;49.902;8.590;2022-11-12T10:01:57;8.40;99.90
7494;DHT22;3788;49.902;8.590;2022-11-12T10:04:52;8.30;99.90
7494;DHT22;3788;49.902;8.590;2022-11-12T10:07:37;8.30;99.90
7494;DHT22;3788;49.902;8.590;2022-11-12T10:10:12;8.40;99.90
7494;DHT22;3788;49.902;8.590;2022-11-12T10:12:52;8.50;99.90
7494;DHT22;3788;49.902;8.590;2022-11-12T10:15:35;8.50;99.90
7494;DHT22;3788;49.902;8.590;2022-11-12T10:18:39;8.50;99.90
7494;DHT22;3788;49.902;8.590;2022-11-12T10:21:17;8.50;99.90
7494;DHT22;3788;49.902;8.590;2022-11-12T10:23:48;8.60;99.90
7494;DHT22;3788;49.902;8.590;2022-11-12T10:26:20;8.60;99.90
7494;DHT22;3788;49.902;8.590;2022-11-12T10:28:51;8.60;99.90
7494;DHT22;3788;49.902;8.590;2022-11-12T10:31:21;8.60;99.90
7494;DHT22;3788;49.902;8.590;2022-11-12T10:33:48;8.50;99.90
7494;DHT22;3788;49.902;8.590;2022-11-12T10:36:23;8.50;99.90
7494;DHT22;3788;49.902;8.590;2022-11-12T10:38:53;8.50;99.90
7494;DHT22;3788;49.902;8.590;2022-11-12T10:41:25;8.60;99.90
7494;DHT22;3788;49.902;8.590;2022-11-12T10:44:12;8.60;99.90
7494;DHT22;3788;49.902;8.590;2022-11-12T10:46:43;8.60;99.90
7494;DHT22;3788;49.902;8.590;2022-11-12T10:49:23;8.60;99.90
7494;DHT22;3788;49.902;8.590;2022-11-12T10:51:54;8.60;99.90
7494;DHT22;3788;49.902;8.590;2022-11-12T10:54:29;8.60;99.90
7494;DHT22;3788;49.902;8.590;2022-11-12T10:57:17;8.60;99.90
7494;DHT22;3788;49.902;8.590;2022-11-12T10:59:46;8.60;99.90
7494;DHT22;3788;49.902;8.590;2022-11-12T11:02:31;8.60;99.90
7494;DHT22;3788;49.902;8.590;2022-11-12T11:04:59;8.70;99.90
7494;DHT22;3788;49.902;8.590;2022-11-12T11:07:28;8.70;99.90
7494;DHT22;3788;49.902;8.590;2022-11-12T11:09:57;8.70;99.90
7494;DHT22;3788;49.902;8.590;2022-11-12T11:12:26;8.80;99.90
7494;DHT22;3788;49.902;8.590;2022-11-12T11:15:06;8.80;99.90
7494;DHT22;3788;49.902;8.590;2022-11-12T11:17:33;8.90;99.90
7494;DHT22;3788;49.902;8.590;2022-11-12T11:20:04;8.90;99.90
7494;DHT22;3788;49.902;8.590;2022-11-12T11:22:40;8.90;99.90
7494;DHT22;3788;49.902;8.590;2022-11-12T11:25:15;8.90;99.90
7494;DHT22;3788;49.902;8.590;2022-11-12T11:27:56;8.80;99.90
7494;DHT22;3788;49.902;8.590;2022-11-12T11:30:27;8.80;99.90
7494;DHT22;3788;49.902;8.590;2022-11-12T11:33:08;8.80;99.90
7494;DHT22;3788;49.902;8.590;2022-11-12T11:35:51;8.80;99.90
7494;DHT22;3788;49.902;8.590;2022-11-12T11:38:27;8.80;99.90
7494;DHT22;3788;49.902;8.590;2022-11-12T11:41:06;8.80;99.90
7494;DHT22;3788;49.902;8.590;2022-11-12T11:43:49;8.90;99.90
7494;DHT22;3788;49.902;8.590;2022-11-12T11:46:39;8.90;99.90
7494;DHT22;3788;49.902;8.590;2022-11-12T11:52:27;9.10;99.90
7494;DHT22;3788;49.902;8.590;2022-11-12T11:55:13;9.20;99.90
7494;DHT22;3788;49.902;8.590;2022-11-12T11:57:51;9.20;99.90
7494;DHT22;3788;49.902;8.590;2022-11-12T12:00:24;9.20;99.90
7494;DHT22;3788;49.902;8.590;2022-11-12T12:03:15;9.20;99.90
7494;DHT22;3788;49.902;8.590;2022-11-12T12:05:48;9.30;99.90
7494;DHT22;3788;49.902;8.590;2022-11-12T12:08:25;9.30;99.90
7494;DHT22;3788;49.902;8.590;2022-11-12T12:11:01;9.30;99.90
7494;DHT22;3788;49.902;8.590;2022-11-12T12:13:35;9.40;99.90
7494;DHT22;3788;49.902;8.590;2022-11-12T12:16:17;9.50;99.90
7494;DHT22;3788;49.902;8.590;2022-11-12T12:18:52;9.50;99.90
7494;DHT22;3788;49.902;8.590;2022-11-12T12:21:23;9.50;99.90
7494;DHT22;3788;49.902;8.590;2022-11-12T12:23:57;9.60;99.90
7494;DHT22;3788;49.902;8.590;2022-11-12T12:26:30;9.60;99.90
7494;DHT22;3788;49.902;8.590;2022-11-12T12:29:05;9.70;99.90
7494;DHT22;3788;49.902;8.590;2022-11-12T12:31:37;9.70;99.90
7494;DHT22;3788;49.902;8.590;2022-11-12T12:34:14;9.80;99.90
7494;DHT22;3788;49.902;8.590;2022-11-12T12:36:44;9.80;99.90
7494;DHT22;3788;49.902;8.590;2022-11-12T12:39:15;9.70;99.90
7494;DHT22;3788;49.902;8.590;2022-11-12T12:41:50;9.70;99.90
7494;DHT22;3788;49.902;8.590;2022-11-12T12:44:18;9.80;99.90
7494;DHT22;3788;49.902;8.590;2022-11-12T12:46:52;9.80;99.90
7494;DHT22;3788;49.902;8.590;2022-11-12T12:49:28;9.80;99.90
7494;DHT22;3788;49.902;8.590;2022-11-12T12:51:57;9.80;99.90
7494;DHT22;3788;49.902;8.590;2022-11-12T12:54:54;9.80;99.90
7494;DHT22;3788;49.902;8.590;2022-11-12T12:57:29;9.80;99.90
7494;DHT22;3788;49.902;8.590;2022-11-12T13:00:26;9.80;99.90
7494;DHT22;3788;49.902;8.590;2022-11-12T13:02:59;9.70;99.90
7494;DHT22;3788;49.902;8.590;2022-11-12T13:05:29;9.80;99.90
7494;DHT22;3788;49.902;8.590;2022-11-12T13:08:01;9.70;99.90
7494;DHT22;3788;49.902;8.590;2022-11-12T13:10:53;9.70;99.90
7494;DHT22;3788;49.902;8.590;2022-11-12T13:13:30;9.70;99.90
7494;DHT22;3788;49.902;8.590;2022-11-12T13:15:59;9.70;99.90
7494;DHT22;3788;49.902;8.590;2022-11-12T13:18:57;9.70;99.90
7494;DHT22;3788;49.902;8.590;2022-11-12T13:21:27;9.70;99.90
7494;DHT22;3788;49.902;8.590;2022-11-12T13:24:00;9.70;99.90
7494;DHT22;3788;49.902;8.590;2022-11-12T13:26:48;9.70;99.90
7494;DHT22;3788;49.902;8.590;2022-11-12T13:29:24;9.70;99.90
7494;DHT22;3788;49.902;8.590;2022-11-12T13:32:47;9.70;99.90
7494;DHT22;3788;49.902;8.590;2022-11-12T13:35:24;9.80;99.90
7494;DHT22;3788;49.902;8.590;2022-11-12T13:37:56;9.80;99.90
7494;DHT22;3788;49.902;8.590;2022-11-12T13:40:35;9.80;99.90
7494;DHT22;3788;49.902;8.590;2022-11-12T13:43:08;9.70;99.90
7494;DHT22;3788;49.902;8.590;2022-11-12T13:45:41;9.80;99.90
7494;DHT22;3788;49.902;8.590;2022-11-12T13:48:14;9.80;99.90
7494;DHT22;3788;49.902;8.590;2022-11-12T13:50:48;9.80;99.90
7494;DHT22;3788;49.902;8.590;2022-11-12T13:53:22;9.80;99.90
7494;DHT22;3788;49.902;8.590;2022-11-12T13:55:52;9.80;99.90
7494;DHT22;3788;49.902;8.590;2022-11-12T13:58:25;9.80;99.90
7494;DHT22;3788;49.902;8.590;2022-11-12T14:00:53;9.80;99.90
7494;DHT22;3788;49.902;8.590;2022-11-12T14:03:20;9.90;99.90
7494;DHT22;3788;49.902;8.590;2022-11-12T14:05:49;9.80;99.90
7494;DHT22;3788;49.902;8.590;2022-11-12T14:08:30;9.90;99.90
7494;DHT22;3788;49.902;8.590;2022-11-12T14:11:33;9.90;99.90
7494;DHT22;3788;49.902;8.590;2022-11-12T14:14:09;9.80;99.90
7494;DHT22;3788;49.902;8.590;2022-11-12T14:16:50;9.80;99.90
7494;DHT22;3788;49.902;8.590;2022-11-12T14:19:30;9.80;99.90
7494;DHT22;3788;49.902;8.590;2022-11-12T14:22:00;9.70;99.90
7494;DHT22;3788;49.902;8.590;2022-11-12T14:24:38;9.70;99.90
7494;DHT22;3788;49.902;8.590;2022-11-12T14:27:20;9.70;99.90
7494;DHT22;3788;49.902;8.590;2022-11-12T14:29:48;9.70;99.90
7494;DHT22;3788;49.902;8.590;2022-11-12T14:32:17;9.60;99.90
7494;DHT22;3788;49.902;8.590;2022-11-12T14:34:44;9.60;99.90
7494;DHT22;3788;49.902;8.590;2022-11-12T14:37:34;9.60;99.90
7494;DHT22;3788;49.902;8.590;2022-11-12T14:40:03;9.50;99.90
7494;DHT22;3788;49.902;8.590;2022-11-12T14:42:41;9.50;99.90
7494;DHT22;3788;49.902;8.590;2022-11-12T14:45:14;9.50;99.90
7494;DHT22;3788;49.902;8.590;2022-11-12T14:47:41;9.50;99.90
7494;DHT22;3788;49.902;8.590;2022-11-12T14:50:13;9.50;99.90
7494;DHT22;3788;49.902;8.590;2022-11-12T14:52:43;9.50;99.90
7494;DHT22;3788;49.902;8.590;2022-11-12T14:55:17;9.50;99.90
7494;DHT22;3788;49.902;8.590;2022-11-12T14:57:45;9.50;99.90
7494;DHT22;3788;49.902;8.590;2022-11-12T15:00:17;9.50;99.90
7494;DHT22;3788;49.902;8.590;2022-11-12T15:02:44;9.50;99.90
7494;DHT22;3788;49.902;8.590;2022-11-12T15:05:14;9.40;99.90
7494;DHT22;3788;49.902;8.590;2022-11-12T15:07:52;9.40;99.90
7494;DHT22;3788;49.902;8.590;2022-11-12T15:10:35;9.40;99.90
7494;DHT22;3788;49.902;8.590;2022-11-12T15:13:05;9.30;99.90
7494;DHT22;3788;49.902;8.590;2022-11-12T15:15:33;9.30;99.90
7494;DHT22;3788;49.902;8.590;2022-11-12T15:18:02;9.30;99.90
7494;DHT22;3788;49.902;8.590;2022-11-12T15:20:29;9.30;99.90
7494;DHT22;3788;49.902;8.590;2022-11-12T15:22:56;9.20;99.90
7494;DHT22;3788;49.902;8.590;2022-11-12T15:25:25;9.20;99.90
7494;DHT22;3788;49.902;8.590;2022-11-12T15:27:54;9.20;99.90
7494;DHT22;3788;49.902;8.590;2022-11-12T15:30:22;9.20;99.90
7494;DHT22;3788;49.902;8.590;2022-11-12T15:32:50;9.20;99.90
7494;DHT22;3788;49.902;8.590;2022-11-12T15:35:36;9.20;99.90
7494;DHT22;3788;49.902;8.590;2022-11-12T15:38:06;9.20;99.90
7494;DHT22;3788;49.902;8.590;2022-11-12T15:40:39;9.10;99.90
7494;DHT22;3788;49.902;8.590;2022-11-12T15:43:22;9.10;99.90
7494;DHT22;3788;49.902;8.590;2022-11-12T15:45:50;9.10;99.90
7494;DHT22;3788;49.902;8.590;2022-11-12T15:48:17;9.10;99.90
7494;DHT22;3788;49.902;8.590;2022-11-12T15:50:44;9.10;99.90
7494;DHT22;3788;49.902;8.590;2022-11-12T15:53:11;9.10;99.90
7494;DHT22;3788;49.902;8.590;2022-11-12T15:55:39;9.10;99.90
7494;DHT22;3788;49.902;8.590;2022-11-12T15:58:09;9.10;99.90
7494;DHT22;3788;49.902;8.590;2022-11-12T16:00:39;9.10;99.90
7494;DHT22;3788;49.902;8.590;2022-11-12T16:03:11;9.10;99.90
7494;DHT22;3788;49.902;8.590;2022-11-12T16:05:39;9.00;99.90
7494;DHT22;3788;49.902;8.590;2022-11-12T16:08:06;9.00;99.90
7494;DHT22;3788;49.902;8.590;2022-11-12T16:10:34;9.00;99.90
7494;DHT22;3788;49.902;8.590;2022-11-12T16:13:03;9.00;99.90
7494;DHT22;3788;49.902;8.590;2022-11-12T16:15:30;9.00;99.90
7494;DHT22;3788;49.902;8.590;2022-11-12T16:17:58;9.00;99.90
7494;DHT22;3788;49.902;8.590;2022-11-12T16:20:27;9.00;99.90
7494;DHT22;3788;49.902;8.590;2022-11-12T16:22:55;9.00;99.90
7494;DHT22;3788;49.902;8.590;2022-11-12T16:25:23;9.00;99.90
7494;DHT22;3788;49.902;8.590;2022-11-12T16:27:50;8.90;99.90
7494;DHT22;3788;49.902;8.590;2022-11-12T16:30:19;8.90;99.90
7494;DHT22;3788;49.902;8.590;2022-11-12T16:32:47;8.90;99.90
7494;DHT22;3788;49.902;8.590;2022-11-12T16:35:15;8.90;99.90
7494;DHT22;3788;49.902;8.590;2022-11-12T16:37:43;8.90;99.90
7494;DHT22;3788;49.902;8.590;2022-11-12T16:40:13;8.90;99.90
7494;DHT22;3788;49.902;8.590;2022-11-12T16:42:40;8.90;99.90
7494;DHT22;3788;49.902;8.590;2022-11-12T16:45:10;8.90;99.90